FGSL

Malabo Airport

Malabo, Equatorial Guinea
METAR FGSL 231000Z 24006KT 8000 TS FEW013 FEW018CB 30/23 Q1012 BECMG NSW
Observed Flight Rules
Jan-23 @ 10:00 UTC (2 hours ago) Marginal Visual Flight Rules
Wind Visibility Clouds Conditions
240° at 6 knots 7,998 meters
  • Few at 1,300' AGL
  • Few at 1,800' AGL
  • Thunderstorm
Temperatures Readings
Current 30°C / 86°F
Dewpoint 23°C / 73°F
Humidity 66%
Altimeter 29.88" Hg
Pressure 1012 hPa
Elevation 56
METAR FGSL 231000Z 24006KT 8000 TS FEW013 FEW018CB 30/23 Q1012 BECMG NSW
Observed Flight Rules
Jan-23 @ 10:00 UTC
(2 hours ago)
MVFR
Wind Visibility
240° at 6 knots 7,998 meters
Clouds
  • Few at 1,300' AGL
  • Few at 1,800' AGL
Conditions
  • Thunderstorm
Temperature Dewpoint
30°C / 86°F 23°C / 73°F
Humidity Altimeter Pressure
66% 29.88" Hg 1012 hPa